createdAt,value
2023-02-11T00:00:40.338Z,58.65
2023-02-11T00:01:41.934Z,49.50
2023-02-11T00:02:46.086Z,51.92
2023-02-11T00:03:49.337Z,45.80
2023-02-11T00:04:50.992Z,43.90
2023-02-11T00:06:02.712Z,38.13
2023-02-11T00:07:04.348Z,38.75
2023-02-11T00:08:06.029Z,37.78
2023-02-11T00:09:07.694Z,39.78
2023-02-11T00:10:09.572Z,42.08
2023-02-11T00:11:15.593Z,41.13
2023-02-11T00:12:19.661Z,35.72
2023-02-11T00:13:21.688Z,36.55
2023-02-11T00:14:23.313Z,40.90
2023-02-11T00:15:24.921Z,37.17
2023-02-11T00:16:26.716Z,38.03
2023-02-11T00:17:28.323Z,34.30
2023-02-11T00:18:30.340Z,39.53
2023-02-11T00:19:31.956Z,36.40
2023-02-11T00:20:33.561Z,35.13
2023-02-11T00:21:35.203Z,36.42
2023-02-11T00:22:36.790Z,34.78
2023-02-11T00:23:38.538Z,35.33
2023-02-11T00:24:40.189Z,37.37
2023-02-11T00:25:42.319Z,38.13
2023-02-11T00:26:44.963Z,30.50
2023-02-11T00:27:46.642Z,35.35
2023-02-11T00:28:48.628Z,33.42
2023-02-11T00:29:50.278Z,34.47
2023-02-11T00:30:58.120Z,33.50
2023-02-11T00:32:05.222Z,35.45
2023-02-11T00:33:06.914Z,34.75
2023-02-11T00:34:08.585Z,34.47
2023-02-11T00:35:10.160Z,36.25
2023-02-11T00:36:14.715Z,31.85
2023-02-11T00:37:16.797Z,36.07
2023-02-11T00:38:18.458Z,35.28
2023-02-11T00:39:20.114Z,33.05
2023-02-11T00:40:21.810Z,35.60
2023-02-11T00:41:23.729Z,33.78
2023-02-11T00:42:25.425Z,34.42
2023-02-11T00:43:27.114Z,34.23
2023-02-11T00:44:28.775Z,34.63
2023-02-11T00:45:30.813Z,33.70
2023-02-11T00:46:32.465Z,38.75
2023-02-11T00:47:34.180Z,33.90
2023-02-11T00:48:35.895Z,33.38
2023-02-11T00:49:39.692Z,33.40
2023-02-11T00:50:41.326Z,35.55
2023-02-11T00:51:42.920Z,34.95
2023-02-11T00:52:44.617Z,34.15
2023-02-11T00:53:46.289Z,35.22
2023-02-11T00:54:47.993Z,38.23
2023-02-11T00:55:49.809Z,36.38
2023-02-11T00:56:51.583Z,33.90
2023-02-11T00:57:53.174Z,35.42
2023-02-11T00:58:54.775Z,30.83
2023-02-11T00:59:56.422Z,32.63
2023-02-11T01:00:58.080Z,28.53
2023-02-11T01:01:59.711Z,30.80
2023-02-11T01:03:01.330Z,35.08
2023-02-11T01:04:03.065Z,28.83
2023-02-11T01:05:05.085Z,32.55
2023-02-11T01:06:07.529Z,31.33
2023-02-11T01:07:09.205Z,34.23
2023-02-11T01:08:10.823Z,33.55
2023-02-11T01:09:12.425Z,34.85
2023-02-11T01:10:14.214Z,32.38
2023-02-11T01:11:18.181Z,40.35
2023-02-11T01:12:19.799Z,33.90
2023-02-11T01:13:21.547Z,30.80
2023-02-11T01:14:23.194Z,37.78
2023-02-11T01:15:24.881Z,32.47
2023-02-11T01:16:26.493Z,35.00
2023-02-11T01:17:28.129Z,30.95
2023-02-11T01:18:29.777Z,34.23
2023-02-11T01:19:31.695Z,33.42
2023-02-11T01:20:33.389Z,34.17
2023-02-11T01:21:35.046Z,35.53
2023-02-11T01:22:39.581Z,33.90
2023-02-11T01:23:41.234Z,36.20
2023-02-11T01:24:42.828Z,33.88
2023-02-11T01:25:44.516Z,32.33
2023-02-11T01:26:46.182Z,32.83
2023-02-11T01:27:47.771Z,34.30
2023-02-11T01:28:49.389Z,34.45
2023-02-11T01:29:50.995Z,32.83
2023-02-11T01:30:52.957Z,35.55
2023-02-11T01:31:54.671Z,30.77
2023-02-11T01:32:56.276Z,37.63
2023-02-11T01:33:57.873Z,36.38
2023-02-11T01:34:59.472Z,35.33
2023-02-11T01:36:03.058Z,33.22
2023-02-11T01:37:04.720Z,32.85
2023-02-11T01:38:07.299Z,36.50
2023-02-11T01:39:08.974Z,32.63
2023-02-11T01:40:15.904Z,33.67
2023-02-11T01:41:17.570Z,33.87
2023-02-11T01:42:20.671Z,38.92
2023-02-11T01:43:22.870Z,37.88
2023-02-11T01:44:36.501Z,34.00
2023-02-11T01:45:47.323Z,35.78
2023-02-11T01:46:49.129Z,34.23
2023-02-11T01:47:50.807Z,33.78
2023-02-11T01:49:12.993Z,35.15
2023-02-11T01:50:14.662Z,41.35
2023-02-11T01:51:25.631Z,34.78
2023-02-11T01:52:32.737Z,33.27
2023-02-11T01:53:53.057Z,38.38
2023-02-11T01:55:15.577Z,39.95
2023-02-11T01:56:35.996Z,34.90
2023-02-11T01:57:39.464Z,39.63
2023-02-11T01:58:41.949Z,35.10
2023-02-11T02:00:03.965Z,32.40
2023-02-11T02:01:05.511Z,35.25
2023-02-11T02:02:09.722Z,34.15
2023-02-11T02:03:13.658Z,34.63
2023-02-11T02:04:15.515Z,33.50
2023-02-11T02:05:28.705Z,35.33
2023-02-11T02:06:35.437Z,35.55
2023-02-11T02:07:42.131Z,33.72
2023-02-11T02:08:55.897Z,33.42
2023-02-11T02:10:05.387Z,36.03
2023-02-11T02:11:07.049Z,35.17
2023-02-11T02:12:08.634Z,31.27
2023-02-11T02:13:10.724Z,32.17
2023-02-11T02:14:12.323Z,34.97
2023-02-11T02:15:39.471Z,31.27
2023-02-11T02:16:41.146Z,33.40
2023-02-11T02:17:47.064Z,32.70
2023-02-11T02:19:10.905Z,34.35
2023-02-11T02:20:40.099Z,36.55
2023-02-11T02:22:10.891Z,34.15
2023-02-11T02:23:12.477Z,33.28
2023-02-11T02:24:35.987Z,40.45
2023-02-11T02:26:08.314Z,35.38
2023-02-11T02:27:34.407Z,34.63
2023-02-11T02:29:04.442Z,36.42
2023-02-11T02:30:27.779Z,35.92
2023-02-11T02:31:52.997Z,33.13
2023-02-11T02:33:22.322Z,32.50
2023-02-11T02:34:30.836Z,34.60
2023-02-11T02:35:46.894Z,34.10
2023-02-11T02:36:54.234Z,30.15
2023-02-11T02:38:26.972Z,35.00
2023-02-11T02:39:31.246Z,36.08
2023-02-11T02:40:57.321Z,34.87
2023-02-11T02:41:58.935Z,37.40
2023-02-11T02:43:01.000Z,33.47
2023-02-11T02:44:02.691Z,33.70
2023-02-11T02:45:04.494Z,35.05
2023-02-11T02:46:19.315Z,33.28
2023-02-11T02:47:20.991Z,35.42
2023-02-11T02:48:32.782Z,33.25
2023-02-11T02:49:34.463Z,35.28
2023-02-11T02:50:36.787Z,31.98
2023-02-11T02:51:47.147Z,32.65
2023-02-11T02:52:57.248Z,31.83
2023-02-11T02:54:07.702Z,33.45
2023-02-11T02:55:09.461Z,33.38
2023-02-11T02:56:15.099Z,37.15
2023-02-11T02:57:28.633Z,48.50
2023-02-11T02:59:09.529Z,53.07
2023-02-11T03:00:29.912Z,35.55
2023-02-11T03:01:42.462Z,40.92
2023-02-11T03:02:59.283Z,43.30
2023-02-11T03:04:46.038Z,48.40
2023-02-11T03:05:55.040Z,40.60
2023-02-11T03:07:48.842Z,38.92
2023-02-11T03:09:11.954Z,44.47
2023-02-11T03:10:19.882Z,38.90
2023-02-11T03:11:21.540Z,43.38
2023-02-11T03:12:23.100Z,49.22
2023-02-11T03:13:27.045Z,56.40
2023-02-11T03:14:28.635Z,52.78
2023-02-11T03:15:31.382Z,49.53
2023-02-11T03:16:39.335Z,40.92
2023-02-11T03:17:42.022Z,45.03
2023-02-11T03:18:47.370Z,45.95
2023-02-11T03:19:48.964Z,45.80
2023-02-11T03:20:52.106Z,54.95
2023-02-11T03:21:53.880Z,42.08
2023-02-11T03:23:32.347Z,44.05
2023-02-11T03:24:35.396Z,41.93
2023-02-11T03:25:42.681Z,46.05
2023-02-11T03:26:51.893Z,44.38
2023-02-11T03:28:07.991Z,50.13
2023-02-11T03:29:14.876Z,45.17
2023-02-11T03:30:27.162Z,42.78
2023-02-11T03:31:33.844Z,42.80
2023-02-11T03:32:39.278Z,46.03
2023-02-11T03:33:51.203Z,43.47
2023-02-11T03:35:00.968Z,43.28
2023-02-11T03:36:21.857Z,45.03
2023-02-11T03:37:33.260Z,41.93
2023-02-11T03:38:47.596Z,46.75
2023-02-11T03:39:53.130Z,43.05
2023-02-11T03:40:54.732Z,45.60
2023-02-11T03:41:56.478Z,45.90
2023-02-11T03:43:08.764Z,47.53
2023-02-11T03:44:10.399Z,48.83
2023-02-11T03:45:13.703Z,55.38
2023-02-11T03:46:17.120Z,49.03
2023-02-11T03:47:20.125Z,49.35
2023-02-11T03:48:27.361Z,46.58
2023-02-11T03:49:29.084Z,45.47
2023-02-11T03:50:31.269Z,45.55
2023-02-11T03:51:32.928Z,46.42
2023-02-11T03:52:35.606Z,44.25
2023-02-11T03:53:37.422Z,43.30
2023-02-11T03:54:39.024Z,45.25
2023-02-11T03:55:40.795Z,47.22
2023-02-11T03:57:00.945Z,47.75
2023-02-11T03:58:02.591Z,51.00
2023-02-11T03:59:04.192Z,45.45
2023-02-11T04:00:06.712Z,46.13
2023-02-11T04:01:09.907Z,42.92
2023-02-11T04:02:11.575Z,45.03
2023-02-11T04:03:13.572Z,49.03
2023-02-11T04:04:15.407Z,43.13
2023-02-11T04:05:17.021Z,42.63
2023-02-11T04:06:18.662Z,41.88
2023-02-11T04:07:20.369Z,44.22
2023-02-11T04:08:21.965Z,42.45
2023-02-11T04:09:23.545Z,48.78
2023-02-11T04:10:25.242Z,46.10
2023-02-11T04:11:26.903Z,43.80
2023-02-11T04:12:28.502Z,46.50
2023-02-11T04:13:30.115Z,44.25
2023-02-11T04:14:31.714Z,49.97
2023-02-11T04:15:34.348Z,44.80
2023-02-11T04:16:36.007Z,47.53
2023-02-11T04:17:37.631Z,45.72
2023-02-11T04:18:40.510Z,44.53
2023-02-11T04:19:42.149Z,43.58
2023-02-11T04:20:43.746Z,39.75
2023-02-11T04:21:45.340Z,45.75
2023-02-11T04:22:47.494Z,42.90
2023-02-11T04:23:49.115Z,45.08
2023-02-11T04:24:51.268Z,44.45
2023-02-11T04:25:53.086Z,44.63
2023-02-11T04:26:54.892Z,46.88
2023-02-11T04:27:56.999Z,46.03
2023-02-11T04:28:58.704Z,42.67
2023-02-11T04:30:00.299Z,44.72
2023-02-11T04:31:02.075Z,43.22
2023-02-11T04:32:03.740Z,45.78
2023-02-11T04:33:06.295Z,43.13
2023-02-11T04:34:07.893Z,45.90
2023-02-11T04:35:09.576Z,45.25
2023-02-11T04:36:11.175Z,42.00
2023-02-11T04:37:13.826Z,38.22
2023-02-11T04:38:15.493Z,42.47
2023-02-11T04:39:17.114Z,36.65
2023-02-11T04:40:18.948Z,45.97
2023-02-11T04:41:20.547Z,39.85
2023-02-11T04:42:23.198Z,41.97
2023-02-11T04:43:24.816Z,48.20
2023-02-11T04:44:26.410Z,45.83
2023-02-11T04:45:28.027Z,46.85
2023-02-11T04:46:30.762Z,37.55
2023-02-11T04:47:32.378Z,45.85
2023-02-11T04:48:34.952Z,43.92
2023-02-11T04:49:36.612Z,41.57
2023-02-11T04:50:38.280Z,48.20
2023-02-11T04:51:39.925Z,45.40
2023-02-11T04:52:41.964Z,40.10
2023-02-11T04:53:43.583Z,45.47
2023-02-11T04:54:45.212Z,39.90
2023-02-11T04:55:50.249Z,42.53
2023-02-11T04:56:52.098Z,40.88
2023-02-11T04:57:55.381Z,37.55
2023-02-11T04:58:57.036Z,40.92
2023-02-11T04:59:58.649Z,40.95
2023-02-11T05:01:14.120Z,42.20
2023-02-11T05:02:15.840Z,38.75
2023-02-11T05:03:17.508Z,38.70
2023-02-11T05:04:19.148Z,36.60
2023-02-11T05:05:20.827Z,39.70
2023-02-11T05:06:22.425Z,38.83
2023-02-11T05:07:24.042Z,34.67
2023-02-11T05:08:25.696Z,38.70
2023-02-11T05:09:27.356Z,33.25
2023-02-11T05:10:29.056Z,35.25
2023-02-11T05:11:30.683Z,36.87
2023-02-11T05:12:32.332Z,37.40
2023-02-11T05:13:33.997Z,38.20
2023-02-11T05:14:35.639Z,32.60
2023-02-11T05:15:37.276Z,35.25
2023-02-11T05:16:39.001Z,35.60
2023-02-11T05:17:40.692Z,35.20
2023-02-11T05:18:42.704Z,33.67
2023-02-11T05:19:44.359Z,34.97
2023-02-11T05:20:45.972Z,36.90
2023-02-11T05:22:01.375Z,32.90
2023-02-11T05:23:03.560Z,34.92
2023-02-11T05:24:05.598Z,33.17
2023-02-11T05:25:07.460Z,32.75
2023-02-11T05:26:09.185Z,33.30
2023-02-11T05:27:10.830Z,29.90
2023-02-11T05:28:12.512Z,33.58
2023-02-11T05:29:14.215Z,29.67
2023-02-11T05:30:15.893Z,32.28
2023-02-11T05:31:17.663Z,31.92
2023-02-11T05:32:19.359Z,33.57
2023-02-11T05:33:20.985Z,33.25
2023-02-11T05:34:22.628Z,30.10
2023-02-11T05:35:24.241Z,32.00
2023-02-11T05:36:25.838Z,34.20
2023-02-11T05:37:27.565Z,32.63
2023-02-11T05:38:29.183Z,32.38
2023-02-11T05:39:30.801Z,32.67
2023-02-11T05:40:32.423Z,33.28
2023-02-11T05:41:34.029Z,33.42
2023-02-11T05:42:35.699Z,34.93
2023-02-11T05:43:37.418Z,34.80
2023-02-11T05:44:39.130Z,36.30
2023-02-11T05:45:40.770Z,35.38
2023-02-11T05:46:42.447Z,34.28
2023-02-11T05:47:44.153Z,35.07
2023-02-11T05:48:45.817Z,29.98
2023-02-11T05:49:47.462Z,33.92
2023-02-11T05:50:49.081Z,27.83
2023-02-11T05:51:50.752Z,31.27
2023-02-11T05:52:52.477Z,25.80
2023-02-11T05:53:54.253Z,31.88
2023-02-11T05:54:55.908Z,32.45
2023-02-11T05:55:57.632Z,32.35
2023-02-11T05:56:59.225Z,32.22
2023-02-11T05:58:00.849Z,30.70
2023-02-11T05:59:02.462Z,30.67
2023-02-11T06:00:05.073Z,34.33
2023-02-11T06:01:06.759Z,32.95
2023-02-11T06:02:08.976Z,30.38
2023-02-11T06:03:10.660Z,32.27
2023-02-11T06:04:12.270Z,32.20
2023-02-11T06:05:13.949Z,30.33
2023-02-11T06:06:15.744Z,32.65
2023-02-11T06:07:17.624Z,32.40
2023-02-11T06:08:19.231Z,33.23
2023-02-11T06:09:20.957Z,30.15
2023-02-11T06:10:22.581Z,33.28
2023-02-11T06:11:24.323Z,36.35
2023-02-11T06:12:25.961Z,34.40
2023-02-11T06:13:27.569Z,31.52
2023-02-11T06:14:29.173Z,33.25
2023-02-11T06:15:30.823Z,31.90
2023-02-11T06:16:32.580Z,37.45
2023-02-11T06:17:34.361Z,38.22
2023-02-11T06:18:36.097Z,36.08
2023-02-11T06:19:37.754Z,35.07
2023-02-11T06:20:41.576Z,33.67
2023-02-11T06:21:44.480Z,37.22
2023-02-11T06:22:46.395Z,31.95
2023-02-11T06:23:48.034Z,36.10
2023-02-11T06:25:00.836Z,33.33
2023-02-11T06:26:04.765Z,31.00
2023-02-11T06:27:06.381Z,30.45
2023-02-11T06:28:08.669Z,31.92
2023-02-11T06:29:10.286Z,34.65
2023-02-11T06:30:12.305Z,35.92
2023-02-11T06:31:14.150Z,33.20
2023-02-11T06:32:37.023Z,34.05
2023-02-11T06:33:37.619Z,33.70
2023-02-11T06:34:39.252Z,36.03
2023-02-11T06:35:41.002Z,31.55
2023-02-11T06:36:44.101Z,36.60
2023-02-11T06:37:46.871Z,35.77
2023-02-11T06:38:48.672Z,41.40
2023-02-11T06:39:50.344Z,37.20
2023-02-11T06:40:51.998Z,55.38
2023-02-11T06:41:53.600Z,79.22
2023-02-11T06:42:55.225Z,94.43
2023-02-11T06:43:56.871Z,59.87
2023-02-11T06:44:58.517Z,43.40
2023-02-11T06:46:00.210Z,40.13
2023-02-11T06:47:01.849Z,42.55
2023-02-11T06:48:03.528Z,36.83
2023-02-11T06:49:05.125Z,38.10
2023-02-11T06:50:07.931Z,38.87
2023-02-11T06:51:10.682Z,35.13
2023-02-11T06:52:12.383Z,40.97
2023-02-11T06:53:14.019Z,33.53
2023-02-11T06:54:15.612Z,34.92
2023-02-11T06:55:17.289Z,32.40
2023-02-11T06:56:20.167Z,32.78
2023-02-11T06:57:21.785Z,33.80
2023-02-11T06:58:23.396Z,32.92
2023-02-11T06:59:24.992Z,31.52
2023-02-11T07:00:26.910Z,35.47
2023-02-11T07:01:28.670Z,32.25
2023-02-11T07:02:30.377Z,32.40
2023-02-11T07:03:32.574Z,38.80
2023-02-11T07:04:34.243Z,34.35
2023-02-11T07:05:37.198Z,33.75
2023-02-11T07:06:38.810Z,34.28
2023-02-11T07:07:40.494Z,38.35
2023-02-11T07:08:43.147Z,34.42
2023-02-11T07:09:44.832Z,31.17
2023-02-11T07:10:46.454Z,38.63
2023-02-11T07:11:48.054Z,38.13
2023-02-11T07:12:49.645Z,35.95
2023-02-11T07:13:51.737Z,28.52
2023-02-11T07:14:53.386Z,34.97
2023-02-11T07:15:55.068Z,36.83
2023-02-11T07:16:56.731Z,44.30
2023-02-11T07:17:58.406Z,43.28
2023-02-11T07:19:00.220Z,38.95
2023-02-11T07:20:01.820Z,41.08
2023-02-11T07:21:07.606Z,40.53
2023-02-11T07:22:09.215Z,45.13
2023-02-11T07:23:10.903Z,51.80
2023-02-11T07:24:13.135Z,47.63
2023-02-11T07:25:15.674Z,55.92
2023-02-11T07:26:19.074Z,59.80
2023-02-11T07:27:20.685Z,64.97
2023-02-11T07:28:22.340Z,58.40
2023-02-11T07:29:24.006Z,64.78
2023-02-11T07:30:25.693Z,63.83
2023-02-11T07:31:28.587Z,66.80
2023-02-11T07:32:30.463Z,67.30
2023-02-11T07:33:32.082Z,63.70
2023-02-11T07:34:33.845Z,62.15
2023-02-11T07:35:35.481Z,62.42
2023-02-11T07:36:37.729Z,63.40
2023-02-11T07:37:39.345Z,60.33
2023-02-11T07:38:41.196Z,58.58
2023-02-11T07:39:42.794Z,63.78
2023-02-11T07:40:44.398Z,59.47
2023-02-11T07:41:47.859Z,60.17
2023-02-11T07:42:49.458Z,51.97
2023-02-11T07:43:51.207Z,48.90
2023-02-11T07:44:52.814Z,50.38
2023-02-11T07:45:54.406Z,52.38
2023-02-11T07:46:56.165Z,52.55
2023-02-11T07:47:57.882Z,49.50
2023-02-11T07:48:59.479Z,49.30
2023-02-11T07:50:01.161Z,53.85
2023-02-11T07:51:16.991Z,43.72
2023-02-11T07:52:18.676Z,51.65
2023-02-11T07:53:20.315Z,47.88
2023-02-11T07:54:22.146Z,42.78
2023-02-11T07:55:23.829Z,45.28
2023-02-11T07:56:25.510Z,42.28
2023-02-11T07:57:27.316Z,89.43
2023-02-11T07:58:28.996Z,80.35
2023-02-11T07:59:30.698Z,75.53
2023-02-11T08:00:32.327Z,57.38
2023-02-11T08:01:33.977Z,52.70
2023-02-11T08:02:35.674Z,48.38
2023-02-11T08:03:37.874Z,51.45
2023-02-11T08:04:39.496Z,49.35
2023-02-11T08:05:41.112Z,52.25
2023-02-11T08:06:43.383Z,44.53
2023-02-11T08:07:45.046Z,47.33
2023-02-11T08:08:47.175Z,49.97
2023-02-11T08:09:48.838Z,70.30
2023-02-11T08:10:50.720Z,89.30
2023-02-11T08:11:52.633Z,55.95
2023-02-11T08:12:55.212Z,48.47
2023-02-11T08:13:56.864Z,44.85
2023-02-11T08:14:58.531Z,45.45
2023-02-11T08:16:00.212Z,40.72
2023-02-11T08:17:01.889Z,39.70
2023-02-11T08:18:03.595Z,36.20
2023-02-11T08:19:07.534Z,44.65
2023-02-11T08:20:09.531Z,44.20
2023-02-11T08:21:11.208Z,48.43
2023-02-11T08:22:12.840Z,57.38
2023-02-11T08:23:14.462Z,50.05
2023-02-11T08:24:16.197Z,38.47
2023-02-11T08:25:17.857Z,36.15
2023-02-11T08:26:21.203Z,34.10
2023-02-11T08:27:22.834Z,31.42
2023-02-11T08:28:24.525Z,31.63
2023-02-11T08:29:26.333Z,30.25
2023-02-11T08:30:28.223Z,34.40
2023-02-11T08:31:37.662Z,34.38
2023-02-11T08:32:39.715Z,32.63
2023-02-11T08:33:41.748Z,29.35
2023-02-11T08:34:43.400Z,42.42
2023-02-11T08:35:45.061Z,41.20
2023-02-11T08:36:47.417Z,46.20
2023-02-11T08:37:49.054Z,40.85
2023-02-11T08:38:50.682Z,37.03
2023-02-11T08:39:52.303Z,28.98
2023-02-11T08:40:53.996Z,31.73
2023-02-11T08:41:56.748Z,33.65
2023-02-11T08:42:58.393Z,33.60
2023-02-11T08:44:00.104Z,32.20
2023-02-11T08:45:01.777Z,30.55
2023-02-11T08:46:03.693Z,33.75
2023-02-11T08:47:05.472Z,29.25
2023-02-11T08:48:07.164Z,30.10
2023-02-11T08:49:08.765Z,31.05
2023-02-11T08:50:10.497Z,31.50
2023-02-11T08:51:15.065Z,41.28
2023-02-11T08:52:16.797Z,32.58
2023-02-11T08:53:18.461Z,32.65
2023-02-11T08:54:20.128Z,30.40
2023-02-11T08:55:21.741Z,30.10
2023-02-11T08:56:23.788Z,32.92
2023-02-11T08:57:25.411Z,29.60
2023-02-11T08:58:27.030Z,31.02
2023-02-11T08:59:28.821Z,39.92
2023-02-11T09:00:30.672Z,33.93
2023-02-11T09:01:32.474Z,34.22
2023-02-11T09:02:34.266Z,31.95
2023-02-11T09:03:35.975Z,32.10
2023-02-11T09:04:37.580Z,36.42
2023-02-11T09:05:46.858Z,36.25
2023-02-11T09:06:48.493Z,35.45
2023-02-11T09:07:50.135Z,34.42
2023-02-11T09:08:54.874Z,30.50
2023-02-11T09:09:56.477Z,32.58
2023-02-11T09:10:58.124Z,40.40
2023-02-11T09:12:01.387Z,42.75
2023-02-11T09:13:03.078Z,47.53
2023-02-11T09:14:04.763Z,39.58
2023-02-11T09:15:06.742Z,45.13
2023-02-11T09:16:08.559Z,37.17
2023-02-11T09:17:10.312Z,39.03
2023-02-11T09:18:11.989Z,40.20
2023-02-11T09:19:13.711Z,42.47
2023-02-11T09:20:15.337Z,35.17
2023-02-11T09:21:17.226Z,37.33
2023-02-11T09:22:18.827Z,33.13
2023-02-11T09:23:20.477Z,30.48
2023-02-11T09:24:22.075Z,34.03
2023-02-11T09:25:23.678Z,34.72
2023-02-11T09:26:27.264Z,31.08
2023-02-11T09:27:28.871Z,31.70
2023-02-11T09:28:30.596Z,35.88
2023-02-11T09:29:32.208Z,37.20
2023-02-11T09:30:33.954Z,33.15
2023-02-11T09:31:35.869Z,31.57
2023-02-11T09:32:37.576Z,27.35
2023-02-11T09:33:39.790Z,29.50
2023-02-11T09:34:41.412Z,31.08
2023-02-11T09:35:43.076Z,32.08
2023-02-11T09:36:44.731Z,30.63
2023-02-11T09:37:46.337Z,30.02
2023-02-11T09:38:48.061Z,31.55
2023-02-11T09:39:49.674Z,30.67
2023-02-11T09:40:51.596Z,29.95
2023-02-11T09:42:08.338Z,29.63
2023-02-11T09:43:19.731Z,28.17
2023-02-11T09:44:26.356Z,27.98
2023-02-11T09:45:29.081Z,29.55
2023-02-11T09:46:33.350Z,33.28
2023-02-11T09:47:35.923Z,33.65
2023-02-11T09:48:41.712Z,33.65
2023-02-11T09:49:44.915Z,31.88
2023-02-11T09:50:57.569Z,29.38
2023-02-11T09:52:03.886Z,30.73
2023-02-11T09:53:32.545Z,27.60
2023-02-11T09:54:38.060Z,32.55
2023-02-11T09:55:42.804Z,29.83
2023-02-11T09:56:44.422Z,29.88
2023-02-11T09:57:46.033Z,31.92
2023-02-11T09:58:47.715Z,34.78
2023-02-11T09:59:49.528Z,30.05
2023-02-11T10:01:13.424Z,28.52
2023-02-11T10:02:38.144Z,29.60
2023-02-11T10:03:58.055Z,32.08
2023-02-11T10:05:53.679Z,32.43
2023-02-11T10:06:56.590Z,29.00
2023-02-11T10:08:02.653Z,30.17
2023-02-11T10:09:22.735Z,27.75
2023-02-11T10:10:45.649Z,30.50
2023-02-11T10:11:55.478Z,34.35
2023-02-11T10:13:09.391Z,34.28
2023-02-11T10:14:13.836Z,30.55
2023-02-11T10:15:24.494Z,34.03
2023-02-11T10:16:37.712Z,34.85
2023-02-11T10:18:07.702Z,33.03
2023-02-11T10:19:27.808Z,33.40
2023-02-11T10:20:36.437Z,35.10
2023-02-11T10:22:07.414Z,37.00
2023-02-11T10:23:20.973Z,35.90
2023-02-11T10:24:22.579Z,40.67
2023-02-11T10:25:34.147Z,45.25
2023-02-11T10:26:36.982Z,52.83
2023-02-11T10:27:38.587Z,58.72
2023-02-11T10:28:40.221Z,60.25
2023-02-11T10:29:46.142Z,49.13
2023-02-11T10:31:23.023Z,45.75
2023-02-11T10:32:43.110Z,51.53
2023-02-11T10:34:00.792Z,40.85
2023-02-11T10:35:04.148Z,40.10
2023-02-11T10:36:07.488Z,36.40
2023-02-11T10:37:11.487Z,35.53
2023-02-11T10:38:13.163Z,36.65
2023-02-11T10:39:23.121Z,35.40
2023-02-11T10:40:26.985Z,28.83
2023-02-11T10:41:32.981Z,28.63
2023-02-11T10:42:34.597Z,25.73
2023-02-11T10:43:36.348Z,27.85
2023-02-11T10:44:55.454Z,34.20
2023-02-11T10:45:57.243Z,34.55
2023-02-11T10:47:01.953Z,33.42
2023-02-11T10:48:06.586Z,31.15
2023-02-11T10:49:08.256Z,38.97
2023-02-11T10:50:28.047Z,40.65
2023-02-11T10:51:33.690Z,49.75
2023-02-11T10:52:35.340Z,43.03
2023-02-11T10:53:37.230Z,31.40
2023-02-11T10:54:38.826Z,25.30
2023-02-11T10:55:40.482Z,27.20
2023-02-11T10:56:55.223Z,26.17
2023-02-11T10:57:58.818Z,26.75
2023-02-11T10:59:02.049Z,28.02
2023-02-11T11:00:18.143Z,31.42
2023-02-11T11:01:24.758Z,27.23
2023-02-11T11:02:34.358Z,25.70
2023-02-11T11:03:56.224Z,32.63
2023-02-11T11:05:00.146Z,32.70
2023-02-11T11:06:02.815Z,29.17
2023-02-11T11:07:29.995Z,32.90
2023-02-11T11:08:50.612Z,32.83
2023-02-11T11:09:53.584Z,32.72
2023-02-11T11:11:06.595Z,33.17
2023-02-11T11:12:26.864Z,29.52
2023-02-11T11:13:32.283Z,32.03
2023-02-11T11:14:33.911Z,30.23
2023-02-11T11:15:35.750Z,28.90
2023-02-11T11:16:37.430Z,31.20
2023-02-11T11:17:39.053Z,29.70
2023-02-11T11:18:41.630Z,28.63
2023-02-11T11:19:43.431Z,32.28
2023-02-11T11:21:00.354Z,32.35
2023-02-11T11:22:02.194Z,31.60
2023-02-11T11:23:17.427Z,28.20
2023-02-11T11:24:33.582Z,26.90
2023-02-11T11:25:35.248Z,29.33
2023-02-11T11:26:41.818Z,28.03
2023-02-11T11:27:43.416Z,31.00
2023-02-11T11:29:09.224Z,33.95
2023-02-11T11:30:15.939Z,33.90
2023-02-11T11:31:25.313Z,32.33
2023-02-11T11:32:32.818Z,27.75
2023-02-11T11:33:34.964Z,30.52
2023-02-11T11:34:43.459Z,32.83
2023-02-11T11:35:45.144Z,31.85
2023-02-11T11:36:46.823Z,30.60
2023-02-11T11:37:53.129Z,26.97
2023-02-11T11:38:57.199Z,30.75
2023-02-11T11:40:18.042Z,26.85
2023-02-11T11:41:33.509Z,30.20
2023-02-11T11:42:36.626Z,27.42
2023-02-11T11:43:38.364Z,27.27
2023-02-11T11:44:40.035Z,30.30
2023-02-11T11:45:58.337Z,28.92
2023-02-11T11:47:11.718Z,28.73
2023-02-11T11:48:17.635Z,27.13
2023-02-11T11:49:39.924Z,28.37
2023-02-11T11:50:46.158Z,26.50
2023-02-11T11:52:26.578Z,27.63
2023-02-11T11:53:36.333Z,35.08
2023-02-11T11:54:38.006Z,28.98
2023-02-11T11:55:58.591Z,25.30
2023-02-11T11:57:04.910Z,29.65
2023-02-11T11:58:10.620Z,26.42
2023-02-11T11:59:14.945Z,26.02
2023-02-11T12:00:21.653Z,28.05
2023-02-11T12:01:41.256Z,31.23
2023-02-11T12:03:30.177Z,29.52
2023-02-11T12:04:43.088Z,31.92
2023-02-11T12:05:56.937Z,32.00
2023-02-11T12:07:30.533Z,28.13
2023-02-11T12:08:58.445Z,31.27
2023-02-11T12:10:15.052Z,29.75
2023-02-11T12:11:34.857Z,26.65
2023-02-11T12:13:04.069Z,25.60
2023-02-11T12:14:05.935Z,34.00
2023-02-11T12:15:35.384Z,29.57
2023-02-11T12:16:58.748Z,33.30
2023-02-11T12:18:24.871Z,37.92
2023-02-11T12:19:36.325Z,49.92
2023-02-11T12:20:50.619Z,40.70
2023-02-11T12:22:11.492Z,33.80
2023-02-11T12:23:34.709Z,32.30
2023-02-11T12:24:45.907Z,29.15
2023-02-11T12:25:56.466Z,32.22
2023-02-11T12:27:18.562Z,27.05
2023-02-11T12:28:24.054Z,30.60
2023-02-11T12:29:28.762Z,31.00
2023-02-11T12:30:46.620Z,27.67
2023-02-11T12:32:19.265Z,32.72
2023-02-11T12:33:51.827Z,31.10
2023-02-11T12:35:30.868Z,25.85
2023-02-11T12:36:54.870Z,27.17
2023-02-11T12:38:21.855Z,29.45
2023-02-11T12:40:11.682Z,24.23
2023-02-11T12:41:13.412Z,33.20
2023-02-11T12:42:52.311Z,27.37
2023-02-11T12:43:54.114Z,27.77
2023-02-11T12:45:11.675Z,34.75
2023-02-11T12:46:34.125Z,25.77
2023-02-11T12:47:44.619Z,47.00
2023-02-11T12:49:12.086Z,40.42
2023-02-11T12:50:41.124Z,27.48
2023-02-11T12:52:20.491Z,34.22
2023-02-11T12:53:43.904Z,35.47
2023-02-11T12:54:48.052Z,44.88
2023-02-11T12:55:52.124Z,38.57
2023-02-11T12:56:53.793Z,42.67
2023-02-11T12:57:57.118Z,46.50
2023-02-11T12:59:00.069Z,26.67
2023-02-11T13:00:05.058Z,21.83
2023-02-11T13:01:20.960Z,25.08
2023-02-11T13:02:41.090Z,27.52
2023-02-11T13:03:53.837Z,27.70
2023-02-11T13:05:02.461Z,23.00
2023-02-11T13:06:08.068Z,27.08
2023-02-11T13:07:22.400Z,24.77
2023-02-11T13:08:32.613Z,29.42
2023-02-11T13:09:40.690Z,22.92
2023-02-11T13:10:43.284Z,27.08
2023-02-11T13:11:52.146Z,22.95
2023-02-11T13:13:12.903Z,27.02
2023-02-11T13:14:19.328Z,23.00
2023-02-11T13:15:21.078Z,25.08
2023-02-11T13:16:46.055Z,22.95
2023-02-11T13:18:24.994Z,23.98
2023-02-11T13:19:35.974Z,27.43
2023-02-11T13:21:00.781Z,22.83
2023-02-11T13:22:13.426Z,28.63
2023-02-11T13:23:35.454Z,25.73
2023-02-11T13:25:17.130Z,25.65
2023-02-11T13:26:36.816Z,26.42
2023-02-11T13:27:45.875Z,21.63
2023-02-11T13:29:34.307Z,22.40
2023-02-11T13:30:36.963Z,24.27
2023-02-11T13:31:39.138Z,23.52
2023-02-11T13:32:56.442Z,26.97
2023-02-11T13:33:58.572Z,28.98
2023-02-11T13:35:00.689Z,27.73
2023-02-11T13:36:04.572Z,31.45
2023-02-11T13:37:07.868Z,31.35
2023-02-11T13:38:28.942Z,32.80
2023-02-11T13:39:30.679Z,26.58
2023-02-11T13:40:41.928Z,30.05
2023-02-11T13:41:45.587Z,23.02
2023-02-11T13:42:57.115Z,27.58
2023-02-11T13:44:05.700Z,30.07
2023-02-11T13:45:29.055Z,30.02
2023-02-11T13:46:51.060Z,31.00
2023-02-11T13:47:57.643Z,26.38
2023-02-11T13:48:59.954Z,22.98
2023-02-11T13:50:02.849Z,23.58
2023-02-11T13:51:09.161Z,29.70
2023-02-11T13:52:32.682Z,34.17
2023-02-11T13:54:03.595Z,23.77
2023-02-11T13:55:10.423Z,20.73
2023-02-11T13:56:23.384Z,22.13
2023-02-11T13:57:28.660Z,19.50
2023-02-11T13:58:30.659Z,23.30
2023-02-11T13:59:33.048Z,22.65
2023-02-11T14:00:34.861Z,21.30
2023-02-11T14:02:12.488Z,22.17
2023-02-11T14:03:32.707Z,25.48
2023-02-11T14:04:53.399Z,27.33
2023-02-11T14:06:28.876Z,23.20
2023-02-11T14:07:50.616Z,27.55
2023-02-11T14:09:34.250Z,28.57
2023-02-11T14:10:42.282Z,28.20
2023-02-11T14:11:48.245Z,27.70
2023-02-11T14:13:07.180Z,29.13
2023-02-11T14:14:26.266Z,32.47
2023-02-11T14:15:28.427Z,33.72
2023-02-11T14:16:38.297Z,25.23
2023-02-11T14:17:40.973Z,28.73